Time;durP1;ratioP1;P1;durP2;ratioP2;P2;SDS_P1;SDS_P2;PMS_P1;PMS_P2;Temp;Humidity;BMP_temperature;BMP_pressure;BME280_temperature;BME280_humidity;BME280_pressure;Samples;Min_cycle;Max_cycle;Signal;HPM_P1;HPM_P2
2022/04/15 00:01:00;;;;;;;;;;;;;;;21.54;36.44;95598.09;2067282;28;1700;-62
2022/04/15 00:02:02;;;;;;;;;;;;;;;21.53;36.55;95596.44;2062892;28;1451;-62
2022/04/15 00:03:05;;;;;;;;;;;;;;;21.53;36.84;95590.28;2057133;28;1362;-64
2022/04/15 00:04:08;;;;;;;;;;;;;;;21.52;36.51;95594.78;2065983;28;1894;-61
2022/04/15 00:06:30;;;;;;;;;;;;;;;21.53;36.59;95596.44;2066279;28;1109;-63
2022/04/15 00:07:31;;;;;;;;;;;;;;;21.53;36.87;95595.63;2064839;28;1770;-63
2022/04/15 00:08:33;;;;;;;;;;;;;;;21.52;36.52;95600.16;2065350;28;1505;-63
2022/04/15 00:09:35;;;;;;;;;;;;;;;21.53;36.69;95598.28;2065929;28;1672;-63
2022/04/15 00:10:39;;;;;;;;;;;;;;;21.52;36.74;95600.16;2060043;28;1618;-63
2022/04/15 00:11:41;;;;;;;;;;;;;;;21.53;36.85;95601.78;2056474;28;1525;-63
2022/04/15 00:12:42;;;;;;;;;;;;;;;21.53;36.72;95596.44;2057458;28;1741;-63
2022/04/15 00:13:45;;;;;;;;;;;;;;;21.52;36.68;95594.78;2057234;28;1095;-63
2022/04/15 00:14:47;;;;;;;;;;;;;;;21.53;36.75;95601.78;2065045;28;1542;-63
2022/04/15 00:15:49;;;;;;;;;;;;;;;21.53;36.86;95604.47;2066121;28;1013;-62
2022/04/15 00:16:50;;;;;;;;;;;;;;;21.53;36.95;95598.28;2065456;28;1535;-63
2022/04/15 00:17:52;;;;;;;;;;;;;;;21.54;36.92;95603.44;2066166;28;994;-63
2022/04/15 00:18:53;;;;;;;;;;;;;;;21.54;36.96;95599.94;2065202;28;1536;-63
2022/04/15 00:19:55;;;;;;;;;;;;;;;21.53;36.82;95598.28;2057317;28;1113;-64
2022/04/15 00:20:57;;;;;;;;;;;;;;;21.53;36.97;95601.78;2062919;28;1650;-63
2022/04/15 00:21:58;;;;;;;;;;;;;;;21.54;37.05;95605.28;2073650;28;1199;-64
2022/04/15 00:23:00;;;;;;;;;;;;;;;21.53;36.78;95604.47;2065250;28;1164;-64
2022/04/15 00:24:02;;;;;;;;;;;;;;;21.53;36.69;95599.09;2065219;28;1711;-63
2022/04/15 00:25:05;;;;;;;;;;;;;;;21.54;36.75;95602.59;2055957;28;1979;-63
2022/04/15 00:26:06;;;;;;;;;;;;;;;21.53;36.97;95599.09;2056284;28;1692;-64
2022/04/15 00:27:08;;;;;;;;;;;;;;;21.53;36.82;95606.31;2066102;28;1751;-63
2022/04/15 00:28:09;;;;;;;;;;;;;;;21.54;36.90;95605.28;2064939;28;1478;-63
2022/04/15 00:29:12;;;;;;;;;;;;;;;21.55;36.92;95604.25;2065379;28;1924;-63
2022/04/15 00:30:13;;;;;;;;;;;;;;;21.55;37.07;95609.63;2064972;28;1930;-63
2022/04/15 00:31:15;;;;;;;;;;;;;;;21.56;37.19;95609.41;2065149;28;1843;-63
2022/04/15 00:32:17;;;;;;;;;;;;;;;21.54;37.09;95606.13;2065268;28;1624;-63
2022/04/15 00:33:18;;;;;;;;;;;;;;;21.54;37.16;95608.78;2066216;28;1164;-63
2022/04/15 00:34:20;;;;;;;;;;;;;;;21.54;37.11;95606.13;2066240;28;1553;-63
2022/04/15 00:35:22;;;;;;;;;;;;;;;21.55;37.19;95601.59;2065895;28;1590;-63
2022/04/15 00:36:23;;;;;;;;;;;;;;;;;;2058884;28;1086;-63
2022/04/15 00:37:25;;;;;;;;;;;;;;;21.55;37.17;95610.44;2063590;28;1620;-63
2022/04/15 00:38:26;;;;;;;;;;;;;;;21.55;37.16;95602.41;2064580;28;1762;-63
2022/04/15 00:39:28;;;;;;;;;;;;;;;21.55;37.47;95605.09;2067027;28;1565;-62
2022/04/15 00:40:30;;;;;;;;;;;;;;;21.55;37.32;95607.75;2067120;28;1636;-62
2022/04/15 00:41:31;;;;;;;;;;;;;;;21.55;37.61;95598.91;2049252;29;1077;-62
2022/04/15 00:42:33;;;;;;;;;;;;;;;21.55;37.41;95607.75;2052538;28;1687;-62
2022/04/15 00:43:35;;;;;;;;;;;;;;;21.55;37.70;95605.09;2065060;28;1054;-63
2022/04/15 00:44:37;;;;;;;;;;;;;;;21.55;37.84;95605.09;2057791;28;1993;-64
2022/04/15 00:45:38;;;;;;;;;;;;;;;21.54;37.64;95603.44;2065759;28;1156;-63
2022/04/15 00:46:40;;;;;;;;;;;;;;;21.55;37.69;95605.09;2065887;28;1724;-62
2022/04/15 00:47:48;;;;;;;;;;;;;;;21.58;38.03;95610.03;2060254;28;1096;-62
2022/04/15 00:48:49;;;;;;;;;;;;;;;21.57;38.04;95607.53;2063910;28;1958;-64
2022/04/15 00:49:51;;;;;;;;;;;;;;;21.56;37.54;95606.72;2065137;28;1148;-64
2022/04/15 00:50:52;;;;;;;;;;;;;;;21.55;38.01;95607.75;2063443;28;1880;-64
2022/04/15 00:51:55;;;;;;;;;;;;;;;21.54;38.05;95605.28;2065201;28;1101;-64
2022/04/15 00:52:58;;;;;;;;;;;;;;;21.54;38.07;95615.97;2065804;28;1007;-64
2022/04/15 00:54:02;;;;;;;;;;;;;;;21.54;38.16;95607.94;2065827;28;1129;-65
2022/04/15 00:55:04;;;;;;;;;;;;;;;21.54;38.16;95616.81;2065279;28;1317;-64
2022/04/15 00:56:08;;;;;;;;;;;;;;;21.54;37.86;95613.28;2065227;28;1647;-63
2022/04/15 00:57:11;;;;;;;;;;;;;;;21.52;38.29;95610.84;2065350;28;1567;-64
2022/04/15 00:58:14;;;;;;;;;;;;;;;21.52;38.35;95605.50;2073887;28;1671;-64
2022/04/15 00:59:17;;;;;;;;;;;;;;;21.54;38.32;95605.28;2058887;28;1580;-65
2022/04/15 01:00:20;;;;;;;;;;;;;;;21.55;38.35;95604.25;2057868;28;1770;-65
2022/04/15 01:01:21;;;;;;;;;;;;;;;21.55;38.21;95604.25;2065759;28;1062;-64
2022/04/15 01:02:28;;;;;;;;;;;;;;;21.60;38.32;95616.00;2071512;28;1418;-65
2022/04/15 01:03:30;;;;;;;;;;;;;;;21.59;38.24;95617.00;2063045;28;1105;-67
2022/04/15 01:04:37;;;;;;;;;;;;;;;21.56;38.23;95614.75;2065611;28;1486;-66
2022/04/15 01:05:38;;;;;;;;;;;;;;;21.55;38.43;95613.09;2066847;28;1910;-67
2022/04/15 01:06:40;;;;;;;;;;;;;;;21.53;38.53;95609.81;2071440;28;1821;-66
2022/04/15 01:07:49;;;;;;;;;;;;;;;21.55;38.70;95610.44;2070018;28;1500;-65
2022/04/15 01:08:53;;;;;;;;;;;;;;;21.56;38.49;95612.06;2067230;28;1603;-65
2022/04/15 01:09:55;;;;;;;;;;;;;;;21.55;38.34;95610.44;2062672;28;1480;-65
2022/04/15 01:10:58;;;;;;;;;;;;;;;21.54;38.41;95611.47;2061452;28;1525;-65
2022/04/15 01:12:03;;;;;;;;;;;;;;;21.53;38.52;95607.13;2064927;28;1511;-65
2022/04/15 01:13:05;;;;;;;;;;;;;;;21.54;38.80;95608.78;2071068;28;1660;-66
2022/04/15 01:14:25;;;;;;;;;;;;;;;21.55;38.56;95610.44;2073116;28;1632;-65
2022/04/15 01:15:27;;;;;;;;;;;;;;;21.55;38.46;95610.44;2057987;28;990;-64
2022/04/15 01:16:30;;;;;;;;;;;;;;;21.54;38.43;95608.78;2058455;28;1698;-65
2022/04/15 01:17:33;;;;;;;;;;;;;;;21.55;38.56;95612.28;2066365;28;1637;-63
2022/04/15 01:18:35;;;;;;;;;;;;;;;21.53;38.65;95612.47;2057187;28;1682;-64
2022/04/15 01:19:37;;;;;;;;;;;;;;;21.53;38.60;95614.34;2057033;28;1493;-65
2022/04/15 01:20:39;;;;;;;;;;;;;;;21.54;38.90;95614.16;2065798;28;1687;-64
2022/04/15 01:21:40;;;;;;;;;;;;;;;21.53;38.81;95607.13;2060316;28;1520;-65
2022/04/15 01:22:46;;;;;;;;;;;;;;;21.54;38.89;95606.13;2060973;28;1650;-67
2022/04/15 01:23:47;;;;;;;;;;;;;;;21.54;38.72;95608.78;2065604;28;1014;-64
2022/04/15 01:24:49;;;;;;;;;;;;;;;21.54;38.79;95603.44;2058741;28;1664;-65
2022/04/15 01:25:50;;;;;;;;;;;;;;;21.54;38.79;95600.78;2064116;28;1981;-65
2022/04/15 01:26:52;;;;;;;;;;;;;;;21.53;38.47;95607.13;2059104;28;1634;-65
2022/04/15 01:27:57;;;;;;;;;;;;;;;21.53;38.90;95604.47;2057212;28;1668;-65
2022/04/15 01:28:58;;;;;;;;;;;;;;;21.52;38.97;95605.50;2069611;28;1741;-65
2022/04/15 01:30:00;;;;;;;;;;;;;;;21.52;38.62;95600.16;2066330;28;1704;-64
2022/04/15 01:31:01;;;;;;;;;;;;;;;21.51;38.86;95606.50;2073863;28;982;-64
2022/04/15 01:32:04;;;;;;;;;;;;;;;21.52;38.92;95607.34;2072162;28;1658;-64
2022/04/15 01:33:06;;;;;;;;;;;;;;;21.52;38.92;95597.47;2068234;28;1175;-64
2022/04/15 01:34:09;;;;;;;;;;;;;;;21.53;38.95;95604.47;2062691;28;1166;-64
2022/04/15 01:35:12;;;;;;;;;;;;;;;21.53;38.87;95600.97;2057298;28;1105;-64
2022/04/15 01:36:14;;;;;;;;;;;;;;;21.54;38.74;95605.28;2059532;28;1557;-64
2022/04/15 01:37:16;;;;;;;;;;;;;;;21.53;38.84;95601.78;2073787;28;1614;-64
2022/04/15 01:38:18;;;;;;;;;;;;;;;21.53;38.67;95596.44;2073751;28;1058;-65
2022/04/15 01:39:20;;;;;;;;;;;;;;;21.53;38.53;95596.44;2066975;28;1657;-63
2022/04/15 01:40:21;;;;;;;;;;;;;;;21.56;38.76;95593.34;2065923;28;1495;-61
2022/04/15 01:41:23;;;;;;;;;;;;;;;21.58;38.80;95596.66;2072200;28;1695;-61
2022/04/15 01:42:25;;;;;;;;;;;;;;;21.60;39.02;95591.13;2066839;28;1650;-61
2022/04/15 01:43:27;;;;;;;;;;;;;;;21.60;38.99;95594.59;2065162;28;1082;-62
2022/04/15 01:44:29;;;;;;;;;;;;;;;21.61;38.80;95595.44;2066692;28;1666;-63
2022/04/15 01:45:30;;;;;;;;;;;;;;;21.59;38.79;95582.25;2070511;28;1915;-61
2022/04/15 01:46:32;;;;;;;;;;;;;;;21.62;38.99;95589.84;2073812;28;1808;-61
2022/04/15 01:47:34;;;;;;;;;;;;;;;21.61;38.78;95582.88;2073431;28;1683;-62
2022/04/15 01:48:36;;;;;;;;;;;;;;;21.62;38.75;95581.00;2073280;28;1627;-64
2022/04/15 01:49:38;;;;;;;;;;;;;;;21.60;38.85;95586.59;2056629;28;1515;-63
2022/04/15 01:50:39;;;;;;;;;;;;;;;21.63;38.99;95580.00;2057450;28;1671;-62
2022/04/15 01:51:41;;;;;;;;;;;;;;;21.64;38.98;95592.34;2064241;28;1628;-62
2022/04/15 01:52:42;;;;;;;;;;;;;;;21.61;38.69;95588.22;2066583;28;1650;-62
2022/04/15 01:53:44;;;;;;;;;;;;;;;21.62;38.70;95583.69;2073777;28;1033;-62
2022/04/15 01:54:46;;;;;;;;;;;;;;;21.64;38.50;95587.00;2073189;28;1107;-61
2022/04/15 01:55:47;;;;;;;;;;;;;;;21.62;38.76;95578.34;2059297;28;1899;-64
2022/04/15 01:56:49;;;;;;;;;;;;;;;21.59;38.92;95579.56;2052198;28;1650;-64
2022/04/15 01:57:50;;;;;;;;;;;;;;;21.58;38.91;95580.59;2050056;28;1859;-63
2022/04/15 01:58:52;;;;;;;;;;;;;;;21.58;38.88;95577.94;2056756;28;1571;-63
2022/04/15 01:59:54;;;;;;;;;;;;;;;21.58;38.88;95582.47;2064765;28;1564;-63
2022/04/15 02:00:55;;;;;;;;;;;;;;;21.55;38.45;95578.34;2059378;28;1530;-64
2022/04/15 02:01:57;;;;;;;;;;;;;;;21.55;38.54;95577.53;2062990;28;1524;-64
2022/04/15 02:02:59;;;;;;;;;;;;;;;21.55;38.82;95583.69;2066380;28;1684;-66
2022/04/15 02:04:01;;;;;;;;;;;;;;;21.55;38.97;95583.69;2065557;28;1119;-66
2022/04/15 02:05:03;;;;;;;;;;;;;;;21.55;38.96;95578.34;2056729;28;1551;-66
2022/04/15 02:06:04;;;;;;;;;;;;;;;21.55;38.86;95582.88;2058696;28;1988;-66
2022/04/15 02:07:06;;;;;;;;;;;;;;;21.55;38.81;95581.03;2054311;28;1797;-65
2022/04/15 02:08:07;;;;;;;;;;;;;;;21.54;39.03;95574.03;2052030;28;1730;-65
2022/04/15 02:09:09;;;;;;;;;;;;;;;21.55;39.03;95581.03;2067410;28;1778;-65
2022/04/15 02:10:11;;;;;;;;;;;;;;;21.55;38.67;95583.69;2065779;28;1528;-65
2022/04/15 02:11:12;;;;;;;;;;;;;;;21.55;38.94;95583.69;2073625;28;1101;-65
2022/04/15 02:12:14;;;;;;;;;;;;;;;21.58;38.92;95582.47;2063218;28;1647;-62
2022/04/15 02:13:16;;;;;;;;;;;;;;;21.75;38.61;95586.38;2062837;28;1631;-63
2022/04/15 02:14:18;;;;;;;;;;;;;;;21.86;38.44;95584.97;2048712;29;1113;-62
2022/04/15 02:15:20;;;;;;;;;;;;;;;21.96;38.06;95577.34;2052669;28;1662;-64
2022/04/15 02:16:21;;;;;;;;;;;;;;;22.01;37.93;95590.13;2071345;28;1461;-61
2022/04/15 02:17:23;;;;;;;;;;;;;;;22.06;38.26;95582.31;2066630;28;1515;-62
2022/04/15 02:18:26;;;;;;;;;;;;;;;22.11;37.81;95577.97;2068611;28;1472;-62
2022/04/15 02:19:27;;;;;;;;;;;;;;;22.12;38.12;95578.78;2062030;28;1596;-64
2022/04/15 02:20:29;;;;;;;;;;;;;;;22.09;38.01;95590.72;2065107;28;1112;-64
2022/04/15 02:21:31;;;;;;;;;;;;;;;22.08;38.19;95588.25;2064263;28;2077;-64
2022/04/15 02:22:32;;;;;;;;;;;;;;;22.06;37.87;95577.78;2064812;28;1113;-63
2022/04/15 02:23:34;;;;;;;;;;;;;;;22.04;38.01;95581.69;2065201;28;1526;-63
2022/04/15 02:24:35;;;;;;;;;;;;;;;22.03;38.05;95583.53;2065411;28;1165;-63
2022/04/15 02:25:37;;;;;;;;;;;;;;;22.05;37.95;95584.16;2064475;28;1910;-63
2022/04/15 02:26:38;;;;;;;;;;;;;;;22.06;38.15;95582.31;2057267;28;1690;-64
2022/04/15 02:27:40;;;;;;;;;;;;;;;22.06;37.81;95585.78;2056882;28;1732;-63
2022/04/15 02:28:42;;;;;;;;;;;;;;;22.05;37.93;95580.63;2056378;28;1660;-64
2022/04/15 02:29:43;;;;;;;;;;;;;;;22.06;38.00;95588.47;2048317;28;1465;-64
2022/04/15 02:30:48;;;;;;;;;;;;;;;22.06;37.82;95585.78;2057629;28;1468;-62
2022/04/15 02:31:49;;;;;;;;;;;;;;;22.04;37.81;95593.19;2057481;28;990;-63
2022/04/15 02:32:51;;;;;;;;;;;;;;;22.06;37.84;95596.50;2065509;28;1650;-64
2022/04/15 02:33:53;;;;;;;;;;;;;;;22.09;37.83;95590.72;2056680;28;1109;-64
2022/04/15 02:34:54;;;;;;;;;;;;;;;22.09;37.75;95596.09;2056923;28;1105;-63
2022/04/15 02:35:56;;;;;;;;;;;;;;;22.12;37.39;95593.00;2064091;28;1655;-66
2022/04/15 02:36:57;;;;;;;;;;;;;;;22.16;37.73;95592.56;2065544;28;1019;-64
2022/04/15 02:37:59;;;;;;;;;;;;;;;22.16;37.43;95589.91;2056509;28;1053;-63
2022/04/15 02:39:00;;;;;;;;;;;;;;;22.18;37.35;95582.50;2059280;28;1723;-64
2022/04/15 02:40:03;;;;;;;;;;;;;;;22.17;37.49;95584.34;2066599;28;1447;-64
2022/04/15 02:41:05;;;;;;;;;;;;;;;22.20;37.41;95583.13;2059929;28;1499;-65
2022/04/15 02:42:07;;;;;;;;;;;;;;;22.21;37.40;95587.44;2060251;28;1501;-64
2022/04/15 02:43:09;;;;;;;;;;;;;;;22.19;37.40;95584.94;2064915;28;1805;-64
2022/04/15 02:44:11;;;;;;;;;;;;;;;22.19;37.63;95579.59;2065128;28;1168;-64
2022/04/15 02:45:13;;;;;;;;;;;;;;;22.23;37.39;95582.69;2065335;28;1106;-64
2022/04/15 02:46:14;;;;;;;;;;;;;;;22.22;37.40;95581.84;2068772;28;1951;-64
2022/04/15 02:47:16;;;;;;;;;;;;;;;22.22;37.31;95578.34;2073577;28;1009;-64
2022/04/15 02:48:17;;;;;;;;;;;;;;;22.23;37.15;95580.84;2073098;28;1679;-62
2022/04/15 02:49:19;;;;;;;;;;;;;;;22.24;37.16;95587.00;2067770;28;1621;-66
2022/04/15 02:50:20;;;;;;;;;;;;;;;22.23;37.34;95583.50;2063751;28;1525;-66
2022/04/15 02:51:22;;;;;;;;;;;;;;;22.21;37.31;95582.06;2065334;28;1608;-64
2022/04/15 02:52:24;;;;;;;;;;;;;;;22.13;37.44;95591.13;2053590;28;1021;-64
2022/04/15 02:53:26;;;;;;;;;;;;;;;22.01;37.84;95590.13;2053729;28;1639;-64
2022/04/15 02:54:27;;;;;;;;;;;;;;;21.94;37.90;95591.94;2066722;28;1079;-65
2022/04/15 02:55:29;;;;;;;;;;;;;;;21.87;38.16;95594.63;2066855;28;1610;-65
2022/04/15 02:56:30;;;;;;;;;;;;;;;21.83;38.01;95590.72;2066689;28;1052;-65
2022/04/15 02:57:32;;;;;;;;;;;;;;;21.78;38.37;95588.66;2066367;28;1791;-65
2022/04/15 02:58:33;;;;;;;;;;;;;;;21.74;38.51;95590.09;2072261;28;1691;-65
2022/04/15 02:59:35;;;;;;;;;;;;;;;21.74;38.53;95592.78;2061442;28;1539;-65
2022/04/15 03:00:37;;;;;;;;;;;;;;;21.73;38.57;95598.31;2057751;28;1640;-66
2022/04/15 03:01:38;;;;;;;;;;;;;;;21.72;38.53;95588.66;2066772;28;1017;-65
2022/04/15 03:02:40;;;;;;;;;;;;;;;21.71;38.63;95589.66;2063593;28;1582;-65
2022/04/15 03:03:41;;;;;;;;;;;;;;;21.46;30.82;95587.59;2061925;28;1109;-63
2022/04/15 03:04:43;;;;;;;;;;;;;;;19.71;27.53;95591.34;2061676;28;1826;-63
2022/04/15 03:05:45;;;;;;;;;;;;;;;18.47;27.49;95599.34;2066580;28;1630;-63
2022/04/15 03:06:46;;;;;;;;;;;;;;;17.71;27.95;95595.09;2070391;28;1902;-63
2022/04/15 03:07:48;;;;;;;;;;;;;;;17.00;28.82;95584.63;2072308;28;1515;-63
2022/04/15 03:08:49;;;;;;;;;;;;;;;16.67;28.99;95591.91;2058581;28;1528;-63
2022/04/15 03:09:51;;;;;;;;;;;;;;;16.51;28.73;95590.16;2053818;28;1499;-62
2022/04/15 03:10:52;;;;;;;;;;;;;;;16.31;29.48;95592.38;2050330;28;1718;-61
2022/04/15 03:11:54;;;;;;;;;;;;;;;15.99;28.86;95586.16;2058146;28;1184;-62
2022/04/15 03:12:55;;;;;;;;;;;;;;;15.62;29.60;95587.50;2066104;28;1307;-62
2022/04/15 03:13:57;;;;;;;;;;;;;;;15.60;29.55;95588.66;2066664;28;1656;-62
2022/04/15 03:14:58;;;;;;;;;;;;;;;15.48;29.87;95587.31;2070100;28;1070;-63
2022/04/15 03:16:00;;;;;;;;;;;;;;;15.32;30.39;95590.81;2069812;28;1744;-62
2022/04/15 03:17:02;;;;;;;;;;;;;;;14.95;30.80;95587.59;2071442;28;1710;-63
2022/04/15 03:18:04;;;;;;;;;;;;;;;14.82;31.04;95581.13;2065318;28;1711;-63
2022/04/15 03:19:05;;;;;;;;;;;;;;;14.87;31.15;95590.22;2066121;28;1642;-64
2022/04/15 03:20:07;;;;;;;;;;;;;;;15.00;31.05;95587.13;2066703;28;1708;-63
2022/04/15 03:21:09;;;;;;;;;;;;;;;15.25;30.67;95588.00;2066767;28;1101;-63
2022/04/15 03:22:10;;;;;;;;;;;;;;;15.37;30.32;95589.31;2066401;28;1149;-64
2022/04/15 03:23:12;;;;;;;;;;;;;;;15.19;30.61;95578.91;2067795;28;1643;-64
2022/04/15 03:24:14;;;;;;;;;;;;;;;15.11;30.63;95586.00;2066120;28;2147;-64
2022/04/15 03:25:19;;;;;;;;;;;;;;;15.40;30.15;95582.88;2065843;28;1543;-64
2022/04/15 03:26:21;;;;;;;;;;;;;;;15.45;29.97;95588.50;2060115;28;1956;-64
2022/04/15 03:27:23;;;;;;;;;;;;;;;15.31;29.79;95587.34;2061027;28;1162;-63
2022/04/15 03:28:24;;;;;;;;;;;;;;;15.54;29.73;95584.84;2057712;28;1066;-63
2022/04/15 03:29:26;;;;;;;;;;;;;;;15.61;29.26;95587.66;2057405;28;1559;-63
2022/04/15 03:30:27;;;;;;;;;;;;;;;15.50;29.38;95593.28;2070983;28;1144;-63
2022/04/15 03:31:29;;;;;;;;;;;;;;;15.37;29.49;95586.69;2074644;28;1015;-63
2022/04/15 03:32:31;;;;;;;;;;;;;;;15.03;29.95;95585.97;2071757;28;1540;-63
2022/04/15 03:33:32;;;;;;;;;;;;;;;15.15;29.86;95585.50;2066020;28;1715;-63
2022/04/15 03:34:34;;;;;;;;;;;;;;;15.07;30.07;95589.94;2063593;28;1636;-63
2022/04/15 03:35:36;;;;;;;;;;;;;;;15.06;29.93;95588.31;2066391;28;1340;-63
2022/04/15 03:36:37;;;;;;;;;;;;;;;15.17;29.81;95593.28;2066713;28;1034;-65
2022/04/15 03:37:39;;;;;;;;;;;;;;;15.23;29.70;95591.81;2060321;28;1886;-64
2022/04/15 03:38:40;;;;;;;;;;;;;;;15.17;29.97;95595.94;2045240;29;1193;-63
2022/04/15 03:39:42;;;;;;;;;;;;;;;15.19;29.92;95593.94;2052790;28;1524;-64
2022/04/15 03:40:43;;;;;;;;;;;;;;;15.13;29.77;95602.53;2069460;28;1918;-63
2022/04/15 03:41:45;;;;;;;;;;;;;;;15.00;29.59;95600.38;2067894;28;1547;-63
2022/04/15 03:42:47;;;;;;;;;;;;;;;14.92;30.10;95595.06;2066922;28;1494;-62
2022/04/15 03:43:50;;;;;;;;;;;;;;;14.98;29.86;95598.88;2061720;28;1660;-62
2022/04/15 03:44:51;;;;;;;;;;;;;;;14.85;29.85;95599.31;2058532;28;1454;-63
2022/04/15 03:45:53;;;;;;;;;;;;;;;14.73;29.91;95604.09;2066436;28;1067;-64
2022/04/15 03:46:55;;;;;;;;;;;;;;;15.17;30.24;95606.53;2066441;28;1910;-72
2022/04/15 03:47:57;;;;;;;;;;;;;;;15.75;29.74;95594.13;2068904;28;1629;-64
2022/04/15 03:48:59;;;;;;;;;;;;;;;15.64;29.13;95604.03;2061433;28;1007;-62
2022/04/15 03:50:00;;;;;;;;;;;;;;;15.83;28.89;95602.91;2060631;28;1784;-61
2022/04/15 03:51:02;;;;;;;;;;;;;;;15.60;29.28;95607.22;2074012;28;1520;-62
2022/04/15 03:52:04;;;;;;;;;;;;;;;15.46;29.66;95597.28;2059527;28;1334;-61
2022/04/15 03:53:05;;;;;;;;;;;;;;;15.26;29.48;95605.53;2065589;28;1386;-62
2022/04/15 03:54:07;;;;;;;;;;;;;;;15.27;30.29;95604.53;2055267;28;1546;-61
2022/04/15 03:55:14;;;;;;;;;;;;;;;15.33;29.56;95600.41;2057445;28;1217;-62
2022/04/15 03:56:15;;;;;;;;;;;;;;;15.36;29.83;95606.22;2057180;28;1292;-62
2022/04/15 03:57:17;;;;;;;;;;;;;;;15.40;29.80;95599.59;2059865;28;1516;-62
2022/04/15 03:58:19;;;;;;;;;;;;;;;15.45;29.88;95603.53;2072811;28;1021;-61
2022/04/15 03:59:20;;;;;;;;;;;;;;;15.47;29.77;95606.88;2073842;28;1044;-62
2022/04/15 04:00:23;;;;;;;;;;;;;;;15.42;30.03;95605.56;2065262;28;1654;-68
2022/04/15 04:01:25;;;;;;;;;;;;;;;15.54;29.65;95607.88;2061617;28;1618;-60
2022/04/15 04:02:26;;;;;;;;;;;;;;;15.36;29.31;95606.22;2065790;28;1078;-61
2022/04/15 04:03:28;;;;;;;;;;;;;;;15.00;29.61;95600.38;2066040;28;1076;-68
2022/04/15 04:04:29;;;;;;;;;;;;;;;15.08;30.50;95608.31;2066129;28;1533;-69
2022/04/15 04:05:31;;;;;;;;;;;;;;;15.26;30.11;95605.53;2073137;28;1068;-62
2022/04/15 04:06:33;;;;;;;;;;;;;;;15.32;29.79;95604.88;2056944;28;1906;-69
2022/04/15 04:07:35;;;;;;;;;;;;;;;15.31;29.75;95615.66;2061264;28;1450;-62
2022/04/15 04:08:36;;;;;;;;;;;;;;;14.98;29.78;95612.09;2072044;28;1544;-63
2022/04/15 04:09:38;;;;;;;;;;;;;;;14.52;30.35;95617.69;2070699;28;1597;-61
2022/04/15 04:10:39;;;;;;;;;;;;;;;14.39;30.76;95620.78;2060533;28;1513;-63
2022/04/15 04:11:41;;;;;;;;;;;;;;;14.27;31.00;95614.09;2052097;28;1097;-63
2022/04/15 04:12:43;;;;;;;;;;;;;;;14.14;31.07;95618.97;2050982;28;1476;-61
2022/04/15 04:13:45;;;;;;;;;;;;;;;14.12;31.17;95624.44;2056885;28;1202;-67
2022/04/15 04:14:47;;;;;;;;;;;;;;;13.94;31.53;95619.22;2065533;28;1027;-66
2022/04/15 04:15:48;;;;;;;;;;;;;;;13.94;31.33;95628.94;2065680;28;1481;-68
2022/04/15 04:16:50;;;;;;;;;;;;;;;14.58;30.90;95617.06;2056779;28;1473;-62
2022/04/15 04:17:51;;;;;;;;;;;;;;;15.34;30.49;95616.13;2058376;28;1507;-62
2022/04/15 04:18:53;;;;;;;;;;;;;;;16.02;29.76;95615.00;2063964;28;1739;-65
2022/04/15 04:19:55;;;;;;;;;;;;;;;16.55;29.57;95620.63;2065006;28;1513;-61
2022/04/15 04:20:56;;;;;;;;;;;;;;;16.95;29.20;95616.19;2066176;28;810;-63
2022/04/15 04:21:58;;;;;;;;;;;;;;;17.26;28.88;95616.16;2065567;28;1037;-62
2022/04/15 04:23:00;;;;;;;;;;;;;;;17.51;28.75;95616.00;2061415;28;1500;-62
2022/04/15 04:24:02;;;;;;;;;;;;;;;17.71;28.65;95617.16;2061352;28;1104;-62
2022/04/15 04:25:04;;;;;;;;;;;;;;;17.86;28.46;95619.91;2065999;28;1093;-62
2022/04/15 04:26:06;;;;;;;;;;;;;;;18.00;28.45;95618.28;2065918;28;1101;-62
2022/04/15 04:27:07;;;;;;;;;;;;;;;18.10;28.55;95613.53;2065680;28;1984;-62
2022/04/15 04:28:09;;;;;;;;;;;;;;;18.20;28.56;95615.94;2065982;28;1154;-62
2022/04/15 04:29:11;;;;;;;;;;;;;;;18.28;28.70;95615.84;2057321;28;1214;-62
2022/04/15 04:30:13;;;;;;;;;;;;;;;18.36;28.57;95615.75;2060219;28;1160;-62
2022/04/15 04:31:17;;;;;;;;;;;;;;;18.42;28.35;95619.53;2074116;28;1168;-62
2022/04/15 04:32:19;;;;;;;;;;;;;;;18.47;28.38;95617.16;2074033;28;1105;-62
2022/04/15 04:33:20;;;;;;;;;;;;;;;18.52;28.44;95620.91;2074118;28;1048;-62
2022/04/15 04:34:22;;;;;;;;;;;;;;;18.57;28.54;95611.53;2069174;28;1054;-62
2022/04/15 04:35:24;;;;;;;;;;;;;;;18.61;28.45;95618.13;2068845;28;1121;-62
2022/04/15 04:36:25;;;;;;;;;;;;;;;18.66;28.47;95621.09;2073981;28;1133;-62
2022/04/15 04:37:27;;;;;;;;;;;;;;;18.61;28.63;95610.16;2073794;28;1102;-62
2022/04/15 04:38:28;;;;;;;;;;;;;;;18.74;28.49;95621.00;2073384;28;1594;-62
2022/04/15 04:39:30;;;;;;;;;;;;;;;18.77;28.60;95624.13;2073210;28;1161;-62
2022/04/15 04:40:33;;;;;;;;;;;;;;;18.81;28.79;95632.59;2073104;28;1490;-61
2022/04/15 04:41:36;;;;;;;;;;;;;;;18.84;28.70;95632.22;2072887;28;1086;-62
2022/04/15 04:42:38;;;;;;;;;;;;;;;18.86;28.57;95632.81;2073299;28;1149;-63
2022/04/15 04:43:40;;;;;;;;;;;;;;;18.90;28.84;95626.13;2073165;28;1048;-62
2022/04/15 04:44:42;;;;;;;;;;;;;;;18.93;28.67;95630.25;2073298;28;1360;-62
2022/04/15 04:45:43;;;;;;;;;;;;;;;18.94;28.92;95627.41;2068480;28;1045;-61
2022/04/15 04:46:45;;;;;;;;;;;;;;;18.99;28.87;95624.19;2068309;28;1149;-60
2022/04/15 04:47:47;;;;;;;;;;;;;;;19.02;28.86;95633.66;2073130;28;1906;-62
2022/04/15 04:48:49;;;;;;;;;;;;;;;19.02;28.80;95626.47;2072974;28;1125;-61
2022/04/15 04:49:52;;;;;;;;;;;;;;;19.05;28.87;95628.75;2073313;28;999;-61
2022/04/15 04:50:54;;;;;;;;;;;;;;;19.09;28.79;95631.88;2073410;28;890;-63
2022/04/15 04:51:55;;;;;;;;;;;;;;;19.10;28.88;95634.38;2073220;28;1110;-62
2022/04/15 04:52:58;;;;;;;;;;;;;;;19.12;28.75;95628.84;2073800;28;1136;-62
2022/04/15 04:54:00;;;;;;;;;;;;;;;19.14;28.92;95632.97;2074126;28;1068;-61
2022/04/15 04:55:02;;;;;;;;;;;;;;;19.17;28.96;95637.09;2073335;28;1202;-61
2022/04/15 04:56:04;;;;;;;;;;;;;;;19.18;28.93;95631.59;2064471;28;1298;-62
2022/04/15 04:57:05;;;;;;;;;;;;;;;19.21;28.81;95638.38;2061168;28;1022;-61
2022/04/15 04:58:10;;;;;;;;;;;;;;;19.25;28.82;95636.16;2069155;28;1282;-61
2022/04/15 04:59:14;;;;;;;;;;;;;;;19.27;28.82;95631.47;2073974;28;1117;-61
2022/04/15 05:00:17;;;;;;;;;;;;;;;19.27;29.10;95626.97;2073831;28;971;-62
2022/04/15 05:01:19;;;;;;;;;;;;;;;19.30;29.06;95639.91;2073891;28;1109;-62
2022/04/15 05:02:20;;;;;;;;;;;;;;;19.32;29.10;95634.38;2074152;28;1061;-62
2022/04/15 05:03:22;;;;;;;;;;;;;;;19.34;29.07;95630.53;2073499;28;1509;-62
2022/04/15 05:04:24;;;;;;;;;;;;;;;19.36;28.85;95641.00;2073807;28;1121;-61
2022/04/15 05:05:25;;;;;;;;;;;;;;;19.37;29.12;95638.13;2073938;28;1089;-61
2022/04/15 05:06:27;;;;;;;;;;;;;;;19.39;28.99;95636.13;2073709;28;1543;-62
2022/04/15 05:07:28;;;;;;;;;;;;;;;19.40;29.02;95634.28;2072930;28;1988;-62
2022/04/15 05:08:30;;;;;;;;;;;;;;;19.42;29.15;95635.72;2068813;28;1022;-61
2022/04/15 05:09:32;;;;;;;;;;;;;;;19.44;29.25;95640.88;2060035;28;1497;-61
2022/04/15 05:10:33;;;;;;;;;;;;;;;19.45;28.96;95640.69;2065138;28;978;-62
2022/04/15 05:11:35;;;;;;;;;;;;;;;19.47;29.03;95635.19;2073603;28;1177;-62
2022/04/15 05:12:36;;;;;;;;;;;;;;;19.47;29.23;95631.69;2073839;28;1122;-62
2022/04/15 05:13:38;;;;;;;;;;;;;;;19.49;29.22;95635.81;2073587;28;1121;-61
2022/04/15 05:14:39;;;;;;;;;;;;;;;19.51;29.03;95638.28;2073222;28;1532;-61
2022/04/15 05:15:41;;;;;;;;;;;;;;;19.51;29.26;95641.78;2073817;28;2280;-61
2022/04/15 05:16:43;;;;;;;;;;;;;;;19.54;29.03;95638.75;2073740;28;1074;-61
2022/04/15 05:17:45;;;;;;;;;;;;;;;19.55;29.10;95645.75;2073787;28;1106;-61
2022/04/15 05:18:47;;;;;;;;;;;;;;;19.56;29.08;95643.91;2073500;28;1026;-62
2022/04/15 05:19:48;;;;;;;;;;;;;;;19.58;29.27;95639.22;2069400;28;1079;-61
2022/04/15 05:20:50;;;;;;;;;;;;;;;19.58;29.10;95639.22;2068890;28;1114;-62
2022/04/15 05:21:53;;;;;;;;;;;;;;;19.60;29.13;95639.84;2064899;28;1545;-61
2022/04/15 05:22:54;;;;;;;;;;;;;;;19.62;29.28;95643.16;2065471;28;1097;-63
2022/04/15 05:23:56;;;;;;;;;;;;;;;19.63;29.19;95636.78;2073794;28;1152;-61
2022/04/15 05:24:57;;;;;;;;;;;;;;;19.64;29.06;95638.47;2073811;28;1164;-62
2022/04/15 05:25:59;;;;;;;;;;;;;;;19.64;29.13;95638.47;2073400;28;1061;-61
2022/04/15 05:27:01;;;;;;;;;;;;;;;19.65;29.12;95640.91;2073611;28;1108;-61
2022/04/15 05:28:02;;;;;;;;;;;;;;;19.66;29.36;95636.41;2073770;28;1930;-61
2022/04/15 05:29:04;;;;;;;;;;;;;;;19.68;29.11;95637.03;2073883;28;1077;-61